sensor_id;sensor_type;location;lat;lon;timestamp;pressure;altitude;pressure_sealevel;temperature;humidity
53480;BME280;56133;51.012;-1.648;2022-11-20T00:00:57;100179.94;;;4.83;100.00
53480;BME280;56133;51.012;-1.648;2022-11-20T00:03:22;100178.03;;;4.85;100.00
53480;BME280;56133;51.012;-1.648;2022-11-20T00:05:48;100178.53;;;4.91;100.00
53480;BME280;56133;51.012;-1.648;2022-11-20T00:08:13;100181.41;;;4.88;100.00
53480;BME280;56133;51.012;-1.648;2022-11-20T00:10:40;100180.38;;;4.90;100.00
53480;BME280;56133;51.012;-1.648;2022-11-20T00:13:06;100181.97;;;4.93;100.00
53480;BME280;56133;51.012;-1.648;2022-11-20T00:15:32;100175.78;;;4.92;100.00
53480;BME280;56133;51.012;-1.648;2022-11-20T00:17:57;100183.03;;;5.03;100.00
53480;BME280;56133;51.012;-1.648;2022-11-20T00:20:23;100182.38;;;4.99;100.00
53480;BME280;56133;51.012;-1.648;2022-11-20T00:22:49;100178.34;;;5.07;100.00
53480;BME280;56133;51.012;-1.648;2022-11-20T00:25:15;100180.91;;;5.08;100.00
53480;BME280;56133;51.012;-1.648;2022-11-20T00:27:40;100172.16;;;5.06;100.00
53480;BME280;56133;51.012;-1.648;2022-11-20T00:30:06;100161.09;;;5.12;100.00
53480;BME280;56133;51.012;-1.648;2022-11-20T00:32:32;100154.59;;;5.16;100.00
53480;BME280;56133;51.012;-1.648;2022-11-20T00:34:57;100157.25;;;5.16;100.00
53480;BME280;56133;51.012;-1.648;2022-11-20T00:37:23;100152.25;;;5.12;100.00
53480;BME280;56133;51.012;-1.648;2022-11-20T00:39:48;100147.34;;;5.06;100.00
53480;BME280;56133;51.012;-1.648;2022-11-20T00:42:14;100139.25;;;5.07;100.00
53480;BME280;56133;51.012;-1.648;2022-11-20T00:44:39;100139.78;;;5.12;100.00
53480;BME280;56133;51.012;-1.648;2022-11-20T00:47:05;100144.16;;;5.13;100.00
53480;BME280;56133;51.012;-1.648;2022-11-20T00:49:30;100140.63;;;5.13;100.00
53480;BME280;56133;51.012;-1.648;2022-11-20T00:51:55;100139.03;;;5.23;100.00
53480;BME280;56133;51.012;-1.648;2022-11-20T00:54:21;100131.13;;;5.22;100.00
53480;BME280;56133;51.012;-1.648;2022-11-20T00:56:46;100127.97;;;5.16;100.00
53480;BME280;56133;51.012;-1.648;2022-11-20T00:59:12;100129.88;;;5.27;100.00
53480;BME280;56133;51.012;-1.648;2022-11-20T01:01:37;100112.63;;;5.20;100.00
53480;BME280;56133;51.012;-1.648;2022-11-20T01:04:03;100117.72;;;5.23;100.00
53480;BME280;56133;51.012;-1.648;2022-11-20T01:06:31;100115.47;;;5.30;100.00
53480;BME280;56133;51.012;-1.648;2022-11-20T01:08:59;100109.06;;;5.32;100.00
53480;BME280;56133;51.012;-1.648;2022-11-20T01:11:31;100113.66;;;5.30;100.00
53480;BME280;56133;51.012;-1.648;2022-11-20T01:13:57;100103.75;;;5.32;100.00
53480;BME280;56133;51.012;-1.648;2022-11-20T01:16:31;100108.31;;;5.43;100.00
53480;BME280;56133;51.012;-1.648;2022-11-20T01:19:00;100101.50;;;5.39;100.00
53480;BME280;56133;51.012;-1.648;2022-11-20T01:21:32;100092.66;;;5.39;100.00
53480;BME280;56133;51.012;-1.648;2022-11-20T01:23:58;100102.69;;;5.35;100.00
53480;BME280;56133;51.012;-1.648;2022-11-20T01:26:26;100100.25;;;5.32;100.00
53480;BME280;56133;51.012;-1.648;2022-11-20T01:28:53;100103.19;;;5.40;100.00
53480;BME280;56133;51.012;-1.648;2022-11-20T01:31:25;100099.47;;;5.43;100.00
53480;BME280;56133;51.012;-1.648;2022-11-20T01:33:53;100099.47;;;5.43;100.00
53480;BME280;56133;51.012;-1.648;2022-11-20T01:36:20;100088.81;;;5.43;100.00
53480;BME280;56133;51.012;-1.648;2022-11-20T01:38:47;100088.59;;;5.46;100.00
53480;BME280;56133;51.012;-1.648;2022-11-20T01:41:14;100080.19;;;5.39;100.00
53480;BME280;56133;51.012;-1.648;2022-11-20T01:44:01;100064.94;;;5.41;100.00
53480;BME280;56133;51.012;-1.648;2022-11-20T01:46:27;100061.03;;;5.34;100.00
53480;BME280;56133;51.012;-1.648;2022-11-20T01:49:10;100063.00;;;5.43;100.00
53480;BME280;56133;51.012;-1.648;2022-11-20T01:51:43;100051.84;;;5.38;100.00
53480;BME280;56133;51.012;-1.648;2022-11-20T01:54:17;100047.16;;;5.42;100.00
53480;BME280;56133;51.012;-1.648;2022-11-20T01:56:44;100039.91;;;5.44;100.00
53480;BME280;56133;51.012;-1.648;2022-11-20T01:59:12;100041.13;;;5.51;100.00
53480;BME280;56133;51.012;-1.648;2022-11-20T02:01:39;100039.13;;;5.55;100.00
53480;BME280;56133;51.012;-1.648;2022-11-20T02:04:07;100031.97;;;5.55;100.00
53480;BME280;56133;51.012;-1.648;2022-11-20T02:06:40;100028.22;;;5.58;100.00
53480;BME280;56133;51.012;-1.648;2022-11-20T02:09:07;100024.09;;;5.54;100.00
53480;BME280;56133;51.012;-1.648;2022-11-20T02:11:33;100013.53;;;5.52;100.00
53480;BME280;56133;51.012;-1.648;2022-11-20T02:13:58;100010.03;;;5.52;100.00
53480;BME280;56133;51.012;-1.648;2022-11-20T02:16:34;100003.63;;;5.54;100.00
53480;BME280;56133;51.012;-1.648;2022-11-20T02:19:02;99995.97;;;5.50;100.00
53480;BME280;56133;51.012;-1.648;2022-11-20T02:24:18;99993.88;;;5.66;100.00
53480;BME280;56133;51.012;-1.648;2022-11-20T02:26:50;99990.59;;;5.62;100.00
53480;BME280;56133;51.012;-1.648;2022-11-20T02:29:36;99987.56;;;5.67;100.00
53480;BME280;56133;51.012;-1.648;2022-11-20T02:32:03;99984.78;;;5.69;100.00
53480;BME280;56133;51.012;-1.648;2022-11-20T02:34:28;99981.88;;;5.72;100.00
53480;BME280;56133;51.012;-1.648;2022-11-20T02:36:54;99978.19;;;5.86;100.00
53480;BME280;56133;51.012;-1.648;2022-11-20T02:39:23;99975.53;;;5.86;100.00
53480;BME280;56133;51.012;-1.648;2022-11-20T02:41:52;99961.97;;;5.89;100.00
53480;BME280;56133;51.012;-1.648;2022-11-20T02:44:18;99968.13;;;5.89;100.00
53480;BME280;56133;51.012;-1.648;2022-11-20T02:46:43;99953.84;;;5.90;100.00
53480;BME280;56133;51.012;-1.648;2022-11-20T02:49:08;99951.41;;;5.99;100.00
53480;BME280;56133;51.012;-1.648;2022-11-20T02:51:34;99953.78;;;6.03;100.00
53480;BME280;56133;51.012;-1.648;2022-11-20T02:53:59;99944.69;;;6.06;100.00
53480;BME280;56133;51.012;-1.648;2022-11-20T02:56:25;99943.84;;;6.05;100.00
53480;BME280;56133;51.012;-1.648;2022-11-20T02:58:51;99936.31;;;6.11;100.00
53480;BME280;56133;51.012;-1.648;2022-11-20T03:01:16;99933.78;;;6.20;100.00
53480;BME280;56133;51.012;-1.648;2022-11-20T03:03:41;99924.72;;;6.23;100.00
53480;BME280;56133;51.012;-1.648;2022-11-20T03:06:07;99922.75;;;6.25;100.00
53480;BME280;56133;51.012;-1.648;2022-11-20T03:08:33;99918.28;;;6.26;100.00
53480;BME280;56133;51.012;-1.648;2022-11-20T03:11:04;99916.47;;;6.26;100.00
53480;BME280;56133;51.012;-1.648;2022-11-20T03:13:29;99913.91;;;6.36;100.00
53480;BME280;56133;51.012;-1.648;2022-11-20T03:15:55;99908.09;;;6.42;100.00
53480;BME280;56133;51.012;-1.648;2022-11-20T03:18:20;99900.34;;;6.39;100.00
53480;BME280;56133;51.012;-1.648;2022-11-20T03:20:45;99897.31;;;6.44;100.00
53480;BME280;56133;51.012;-1.648;2022-11-20T03:23:11;99895.84;;;6.51;100.00
53480;BME280;56133;51.012;-1.648;2022-11-20T03:25:36;99886.88;;;6.52;100.00
53480;BME280;56133;51.012;-1.648;2022-11-20T03:28:02;99888.34;;;6.56;100.00
53480;BME280;56133;51.012;-1.648;2022-11-20T03:30:27;99891.47;;;6.61;100.00
53480;BME280;56133;51.012;-1.648;2022-11-20T03:32:53;99882.88;;;6.58;100.00
53480;BME280;56133;51.012;-1.648;2022-11-20T03:35:19;99871.94;;;6.61;100.00
53480;BME280;56133;51.012;-1.648;2022-11-20T03:37:44;99871.44;;;6.67;100.00
53480;BME280;56133;51.012;-1.648;2022-11-20T03:40:11;99871.91;;;6.72;100.00
53480;BME280;56133;51.012;-1.648;2022-11-20T03:42:36;99869.84;;;6.76;100.00
53480;BME280;56133;51.012;-1.648;2022-11-20T03:45:15;99858.63;;;6.93;100.00
53480;BME280;56133;51.012;-1.648;2022-11-20T03:47:41;99854.31;;;7.13;100.00
53480;BME280;56133;51.012;-1.648;2022-11-20T03:50:07;99852.88;;;7.09;100.00
53480;BME280;56133;51.012;-1.648;2022-11-20T03:52:33;99850.16;;;7.21;100.00
53480;BME280;56133;51.012;-1.648;2022-11-20T03:54:58;99852.97;;;7.19;100.00
53480;BME280;56133;51.012;-1.648;2022-11-20T03:57:24;99837.13;;;7.27;100.00
53480;BME280;56133;51.012;-1.648;2022-11-20T03:59:49;99837.59;;;7.33;100.00
53480;BME280;56133;51.012;-1.648;2022-11-20T04:02:14;99829.41;;;7.46;100.00
53480;BME280;56133;51.012;-1.648;2022-11-20T04:04:40;99823.66;;;7.50;100.00
53480;BME280;56133;51.012;-1.648;2022-11-20T04:07:05;99817.78;;;7.56;100.00
53480;BME280;56133;51.012;-1.648;2022-11-20T04:09:31;99816.22;;;7.54;100.00
53480;BME280;56133;51.012;-1.648;2022-11-20T04:11:56;99810.34;;;7.60;100.00
53480;BME280;56133;51.012;-1.648;2022-11-20T04:14:22;99801.44;;;7.50;100.00
53480;BME280;56133;51.012;-1.648;2022-11-20T04:16:47;99805.44;;;7.44;100.00
53480;BME280;56133;51.012;-1.648;2022-11-20T04:19:14;99804.88;;;7.40;100.00
53480;BME280;56133;51.012;-1.648;2022-11-20T04:21:41;99807.09;;;7.35;100.00
53480;BME280;56133;51.012;-1.648;2022-11-20T04:24:07;99813.28;;;7.36;100.00
53480;BME280;56133;51.012;-1.648;2022-11-20T04:26:33;99800.19;;;7.33;100.00
53480;BME280;56133;51.012;-1.648;2022-11-20T04:28:59;99791.91;;;7.36;100.00
53480;BME280;56133;51.012;-1.648;2022-11-20T04:31:32;99791.25;;;7.43;100.00
53480;BME280;56133;51.012;-1.648;2022-11-20T04:34:03;99792.28;;;7.52;100.00
53480;BME280;56133;51.012;-1.648;2022-11-20T04:36:30;99788.81;;;7.62;100.00
53480;BME280;56133;51.012;-1.648;2022-11-20T04:38:57;99777.41;;;7.81;100.00
53480;BME280;56133;51.012;-1.648;2022-11-20T04:41:25;99770.50;;;7.88;100.00
53480;BME280;56133;51.012;-1.648;2022-11-20T04:43:54;99763.69;;;8.05;100.00
53480;BME280;56133;51.012;-1.648;2022-11-20T04:46:24;99756.22;;;8.09;100.00
53480;BME280;56133;51.012;-1.648;2022-11-20T04:48:50;99756.19;;;7.99;100.00
53480;BME280;56133;51.012;-1.648;2022-11-20T04:51:15;99746.09;;;8.12;100.00
53480;BME280;56133;51.012;-1.648;2022-11-20T04:53:41;99748.47;;;8.05;100.00
53480;BME280;56133;51.012;-1.648;2022-11-20T04:56:09;99729.66;;;8.17;100.00
53480;BME280;56133;51.012;-1.648;2022-11-20T04:58:35;99732.56;;;8.04;100.00
53480;BME280;56133;51.012;-1.648;2022-11-20T05:01:22;99733.84;;;8.10;100.00
53480;BME280;56133;51.012;-1.648;2022-11-20T05:03:48;99729.91;;;8.04;100.00
53480;BME280;56133;51.012;-1.648;2022-11-20T05:06:16;99724.41;;;8.05;100.00
53480;BME280;56133;51.012;-1.648;2022-11-20T05:08:42;99743.88;;;8.17;100.00
53480;BME280;56133;51.012;-1.648;2022-11-20T05:11:13;99760.78;;;8.18;100.00
53480;BME280;56133;51.012;-1.648;2022-11-20T05:13:39;99757.38;;;8.16;100.00
53480;BME280;56133;51.012;-1.648;2022-11-20T05:16:10;99753.28;;;8.12;100.00
53480;BME280;56133;51.012;-1.648;2022-11-20T05:18:37;99754.13;;;8.02;100.00
53480;BME280;56133;51.012;-1.648;2022-11-20T05:21:02;99756.59;;;7.94;100.00
53480;BME280;56133;51.012;-1.648;2022-11-20T05:23:30;99758.25;;;7.85;100.00
53480;BME280;56133;51.012;-1.648;2022-11-20T05:25:57;99766.97;;;7.78;100.00
53480;BME280;56133;51.012;-1.648;2022-11-20T05:28:23;99769.72;;;7.66;100.00
53480;BME280;56133;51.012;-1.648;2022-11-20T05:30:49;99761.91;;;7.53;100.00
53480;BME280;56133;51.012;-1.648;2022-11-20T05:33:15;99772.34;;;7.35;100.00
53480;BME280;56133;51.012;-1.648;2022-11-20T05:35:40;99768.38;;;7.29;100.00
53480;BME280;56133;51.012;-1.648;2022-11-20T05:38:06;99774.91;;;7.16;100.00
53480;BME280;56133;51.012;-1.648;2022-11-20T05:40:32;99767.19;;;7.01;100.00
53480;BME280;56133;51.012;-1.648;2022-11-20T05:42:57;99777.50;;;7.06;100.00
53480;BME280;56133;51.012;-1.648;2022-11-20T05:45:22;99779.38;;;6.94;100.00
53480;BME280;56133;51.012;-1.648;2022-11-20T05:47:48;99776.56;;;6.95;100.00
53480;BME280;56133;51.012;-1.648;2022-11-20T05:50:14;99779.16;;;6.86;100.00
53480;BME280;56133;51.012;-1.648;2022-11-20T05:52:40;99777.69;;;6.93;100.00
53480;BME280;56133;51.012;-1.648;2022-11-20T05:55:06;99786.59;;;6.82;100.00
53480;BME280;56133;51.012;-1.648;2022-11-20T05:57:31;99799.78;;;6.83;100.00
53480;BME280;56133;51.012;-1.648;2022-11-20T05:59:57;99800.78;;;6.82;100.00
53480;BME280;56133;51.012;-1.648;2022-11-20T06:02:22;99806.81;;;6.84;100.00
53480;BME280;56133;51.012;-1.648;2022-11-20T06:04:48;99809.00;;;6.91;100.00
53480;BME280;56133;51.012;-1.648;2022-11-20T06:07:13;99809.97;;;6.90;100.00
53480;BME280;56133;51.012;-1.648;2022-11-20T06:09:39;99815.69;;;6.85;100.00
53480;BME280;56133;51.012;-1.648;2022-11-20T06:12:05;99820.06;;;6.86;100.00
53480;BME280;56133;51.012;-1.648;2022-11-20T06:14:30;99814.72;;;6.86;100.00
53480;BME280;56133;51.012;-1.648;2022-11-20T06:16:55;99816.53;;;6.86;100.00
53480;BME280;56133;51.012;-1.648;2022-11-20T06:19:21;99821.03;;;6.85;100.00
53480;BME280;56133;51.012;-1.648;2022-11-20T06:21:48;99819.09;;;6.87;100.00
53480;BME280;56133;51.012;-1.648;2022-11-20T06:24:14;99821.16;;;6.83;100.00
53480;BME280;56133;51.012;-1.648;2022-11-20T06:26:39;99828.56;;;6.91;100.00
53480;BME280;56133;51.012;-1.648;2022-11-20T06:29:04;99831.81;;;6.83;100.00
53480;BME280;56133;51.012;-1.648;2022-11-20T06:31:30;99827.25;;;6.74;100.00
53480;BME280;56133;51.012;-1.648;2022-11-20T06:34:00;99832.00;;;6.59;100.00
53480;BME280;56133;51.012;-1.648;2022-11-20T06:36:25;99836.75;;;6.56;100.00
53480;BME280;56133;51.012;-1.648;2022-11-20T06:38:51;99835.94;;;6.55;100.00
53480;BME280;56133;51.012;-1.648;2022-11-20T06:41:19;99836.91;;;6.54;100.00
53480;BME280;56133;51.012;-1.648;2022-11-20T06:43:45;99838.59;;;6.55;100.00
53480;BME280;56133;51.012;-1.648;2022-11-20T06:46:12;99841.75;;;6.49;100.00
53480;BME280;56133;51.012;-1.648;2022-11-20T06:48:39;99838.25;;;6.48;100.00
53480;BME280;56133;51.012;-1.648;2022-11-20T06:51:06;99839.47;;;6.44;100.00
53480;BME280;56133;51.012;-1.648;2022-11-20T06:53:33;99846.25;;;6.48;100.00
53480;BME280;56133;51.012;-1.648;2022-11-20T06:55:59;99844.56;;;6.36;100.00
53480;BME280;56133;51.012;-1.648;2022-11-20T06:58:27;99845.25;;;6.49;100.00
53480;BME280;56133;51.012;-1.648;2022-11-20T07:00:53;99841.16;;;6.45;100.00
53480;BME280;56133;51.012;-1.648;2022-11-20T07:03:19;99840.53;;;6.42;100.00
53480;BME280;56133;51.012;-1.648;2022-11-20T07:05:44;99838.75;;;6.31;100.00
53480;BME280;56133;51.012;-1.648;2022-11-20T07:08:11;99850.13;;;6.21;100.00
53480;BME280;56133;51.012;-1.648;2022-11-20T07:10:37;99849.06;;;6.35;100.00
53480;BME280;56133;51.012;-1.648;2022-11-20T07:13:03;99854.13;;;6.27;100.00
53480;BME280;56133;51.012;-1.648;2022-11-20T07:15:29;99857.06;;;6.13;100.00
53480;BME280;56133;51.012;-1.648;2022-11-20T07:17:55;99856.91;;;6.03;100.00
53480;BME280;56133;51.012;-1.648;2022-11-20T07:20:20;99855.47;;;6.10;100.00
53480;BME280;56133;51.012;-1.648;2022-11-20T07:22:46;99851.84;;;6.11;100.00
53480;BME280;56133;51.012;-1.648;2022-11-20T07:25:11;99852.91;;;6.08;100.00
53480;BME280;56133;51.012;-1.648;2022-11-20T07:27:37;99864.22;;;6.12;100.00
53480;BME280;56133;51.012;-1.648;2022-11-20T07:30:03;99861.19;;;6.05;100.00
53480;BME280;56133;51.012;-1.648;2022-11-20T07:32:29;99871.13;;;6.03;100.00
53480;BME280;56133;51.012;-1.648;2022-11-20T07:34:54;99870.00;;;5.95;100.00
53480;BME280;56133;51.012;-1.648;2022-11-20T07:37:20;99878.09;;;5.82;100.00
53480;BME280;56133;51.012;-1.648;2022-11-20T07:39:46;99885.47;;;5.78;100.00
53480;BME280;56133;51.012;-1.648;2022-11-20T07:42:11;99887.03;;;5.69;100.00
53480;BME280;56133;51.012;-1.648;2022-11-20T07:44:37;99892.09;;;5.61;100.00
53480;BME280;56133;51.012;-1.648;2022-11-20T07:47:03;99899.25;;;5.60;100.00
53480;BME280;56133;51.012;-1.648;2022-11-20T07:49:28;99908.66;;;5.53;100.00
53480;BME280;56133;51.012;-1.648;2022-11-20T07:51:53;99906.13;;;5.52;100.00
53480;BME280;56133;51.012;-1.648;2022-11-20T07:54:20;99904.50;;;5.49;100.00
53480;BME280;56133;51.012;-1.648;2022-11-20T07:56:46;99906.34;;;5.49;100.00
53480;BME280;56133;51.012;-1.648;2022-11-20T07:59:11;99901.00;;;5.49;100.00
53480;BME280;56133;51.012;-1.648;2022-11-20T08:01:40;99898.59;;;5.57;100.00
53480;BME280;56133;51.012;-1.648;2022-11-20T08:04:06;99892.94;;;5.61;100.00
53480;BME280;56133;51.012;-1.648;2022-11-20T08:06:32;99899.88;;;5.75;100.00
53480;BME280;56133;51.012;-1.648;2022-11-20T08:08:57;99897.34;;;5.85;100.00
53480;BME280;56133;51.012;-1.648;2022-11-20T08:11:22;99897.72;;;5.81;100.00
53480;BME280;56133;51.012;-1.648;2022-11-20T08:14:06;99916.38;;;5.81;100.00
53480;BME280;56133;51.012;-1.648;2022-11-20T08:16:39;99918.31;;;5.90;100.00
53480;BME280;56133;51.012;-1.648;2022-11-20T08:19:05;99927.56;;;5.97;100.00
53480;BME280;56133;51.012;-1.648;2022-11-20T08:21:31;99925.41;;;6.02;100.00
53480;BME280;56133;51.012;-1.648;2022-11-20T08:23:57;99929.25;;;5.98;100.00
53480;BME280;56133;51.012;-1.648;2022-11-20T08:26:24;99934.84;;;6.06;100.00
53480;BME280;56133;51.012;-1.648;2022-11-20T08:28:53;99935.97;;;6.04;100.00
53480;BME280;56133;51.012;-1.648;2022-11-20T08:31:20;99938.25;;;6.08;100.00
53480;BME280;56133;51.012;-1.648;2022-11-20T08:33:45;99943.50;;;6.10;100.00
53480;BME280;56133;51.012;-1.648;2022-11-20T08:36:11;99949.06;;;6.07;100.00
53480;BME280;56133;51.012;-1.648;2022-11-20T08:38:40;99946.63;;;6.04;100.00
53480;BME280;56133;51.012;-1.648;2022-11-20T08:41:09;99955.22;;;6.07;100.00
53480;BME280;56133;51.012;-1.648;2022-11-20T08:43:59;99966.66;;;6.21;100.00
53480;BME280;56133;51.012;-1.648;2022-11-20T08:46:27;99967.91;;;6.40;100.00
53480;BME280;56133;51.012;-1.648;2022-11-20T08:48:53;99962.09;;;6.57;100.00
53480;BME280;56133;51.012;-1.648;2022-11-20T08:51:19;99974.34;;;6.82;100.00
53480;BME280;56133;51.012;-1.648;2022-11-20T08:53:46;99968.59;;;6.98;100.00
53480;BME280;56133;51.012;-1.648;2022-11-20T08:56:13;99970.66;;;7.06;100.00
53480;BME280;56133;51.012;-1.648;2022-11-20T08:58:39;99974.66;;;7.12;100.00
53480;BME280;56133;51.012;-1.648;2022-11-20T09:01:04;99982.56;;;7.13;100.00
53480;BME280;56133;51.012;-1.648;2022-11-20T09:03:30;99984.25;;;7.14;100.00
53480;BME280;56133;51.012;-1.648;2022-11-20T09:05:59;99989.59;;;7.14;100.00
53480;BME280;56133;51.012;-1.648;2022-11-20T09:08:26;99979.63;;;7.05;100.00
53480;BME280;56133;51.012;-1.648;2022-11-20T09:10:52;99990.69;;;7.01;100.00
53480;BME280;56133;51.012;-1.648;2022-11-20T09:13:19;99990.84;;;6.99;100.00
53480;BME280;56133;51.012;-1.648;2022-11-20T09:15:45;99990.56;;;7.02;100.00
53480;BME280;56133;51.012;-1.648;2022-11-20T09:18:10;99988.38;;;7.07;100.00
53480;BME280;56133;51.012;-1.648;2022-11-20T09:20:36;99986.19;;;7.12;100.00
53480;BME280;56133;51.012;-1.648;2022-11-20T09:23:02;99989.47;;;7.16;100.00
53480;BME280;56133;51.012;-1.648;2022-11-20T09:25:27;99997.22;;;7.19;100.00
53480;BME280;56133;51.012;-1.648;2022-11-20T09:27:57;99990.28;;;7.28;100.00
53480;BME280;56133;51.012;-1.648;2022-11-20T09:30:22;99986.41;;;7.32;100.00
53480;BME280;56133;51.012;-1.648;2022-11-20T09:32:48;99996.56;;;7.38;100.00
53480;BME280;56133;51.012;-1.648;2022-11-20T09:35:13;99990.97;;;7.41;100.00
53480;BME280;56133;51.012;-1.648;2022-11-20T09:37:40;99983.69;;;7.43;100.00
53480;BME280;56133;51.012;-1.648;2022-11-20T09:40:06;99989.22;;;7.52;100.00
53480;BME280;56133;51.012;-1.648;2022-11-20T09:45:16;99999.13;;;7.40;100.00
53480;BME280;56133;51.012;-1.648;2022-11-20T09:48:42;100005.22;;;7.31;100.00
53480;BME280;56133;51.012;-1.648;2022-11-20T09:55:57;99998.94;;;7.09;100.00
53480;BME280;56133;51.012;-1.648;2022-11-20T09:58:28;100002.22;;;7.12;100.00
53480;BME280;56133;51.012;-1.648;2022-11-20T10:01:01;99999.53;;;7.24;100.00
53480;BME280;56133;51.012;-1.648;2022-11-20T10:06:05;99998.94;;;7.53;100.00
53480;BME280;56133;51.012;-1.648;2022-11-20T10:08:41;100002.44;;;7.65;100.00
53480;BME280;56133;51.012;-1.648;2022-11-20T10:19:31;100000.81;;;8.27;100.00
53480;BME280;56133;51.012;-1.648;2022-11-20T10:24:43;99991.31;;;8.65;100.00
53480;BME280;56133;51.012;-1.648;2022-11-20T10:30:11;99985.81;;;8.67;100.00
53480;BME280;56133;51.012;-1.648;2022-11-20T10:32:46;99983.03;;;8.69;100.00
53480;BME280;56133;51.012;-1.648;2022-11-20T10:35:28;99988.06;;;8.62;100.00
53480;BME280;56133;51.012;-1.648;2022-11-20T10:38:03;99990.19;;;8.68;100.00
53480;BME280;56133;51.012;-1.648;2022-11-20T10:40:40;99982.88;;;8.70;100.00
53480;BME280;56133;51.012;-1.648;2022-11-20T10:43:31;99982.72;;;8.62;100.00
53480;BME280;56133;51.012;-1.648;2022-11-20T10:46:02;99980.50;;;8.77;100.00
53480;BME280;56133;51.012;-1.648;2022-11-20T10:48:31;99981.69;;;8.84;100.00
53480;BME280;56133;51.012;-1.648;2022-11-20T10:56:45;99974.38;;;8.96;100.00
53480;BME280;56133;51.012;-1.648;2022-11-20T11:01:45;99972.03;;;9.13;100.00
53480;BME280;56133;51.012;-1.648;2022-11-20T11:06:52;99984.44;;;9.14;100.00
53480;BME280;56133;51.012;-1.648;2022-11-20T11:09:29;99982.91;;;9.21;100.00
53480;BME280;56133;51.012;-1.648;2022-11-20T11:11:57;99990.78;;;9.22;100.00
53480;BME280;56133;51.012;-1.648;2022-11-20T11:14:22;99993.09;;;9.27;100.00
53480;BME280;56133;51.012;-1.648;2022-11-20T11:16:57;99998.84;;;9.32;100.00
53480;BME280;56133;51.012;-1.648;2022-11-20T11:19:23;99999.28;;;9.37;100.00
53480;BME280;56133;51.012;-1.648;2022-11-20T11:21:53;99996.34;;;9.40;100.00
53480;BME280;56133;51.012;-1.648;2022-11-20T11:24:29;99996.31;;;9.31;100.00
53480;BME280;56133;51.012;-1.648;2022-11-20T11:27:00;100003.13;;;9.35;100.00
53480;BME280;56133;51.012;-1.648;2022-11-20T11:29:32;99994.22;;;9.44;100.00
53480;BME280;56133;51.012;-1.648;2022-11-20T11:32:17;99995.78;;;9.37;100.00
53480;BME280;56133;51.012;-1.648;2022-11-20T11:34:43;99997.19;;;9.51;100.00
53480;BME280;56133;51.012;-1.648;2022-11-20T11:37:18;99992.13;;;9.48;100.00
53480;BME280;56133;51.012;-1.648;2022-11-20T11:39:46;100007.78;;;9.43;100.00
53480;BME280;56133;51.012;-1.648;2022-11-20T11:42:16;99998.16;;;9.40;100.00
53480;BME280;56133;51.012;-1.648;2022-11-20T11:44:47;100000.56;;;9.33;100.00
53480;BME280;56133;51.012;-1.648;2022-11-20T11:52:45;99987.81;;;9.16;100.00
53480;BME280;56133;51.012;-1.648;2022-11-20T11:58:32;99972.31;;;9.09;100.00
53480;BME280;56133;51.012;-1.648;2022-11-20T12:04:00;99969.81;;;9.37;100.00
53480;BME280;56133;51.012;-1.648;2022-11-20T12:06:30;99968.09;;;9.36;100.00
53480;BME280;56133;51.012;-1.648;2022-11-20T12:09:10;99960.91;;;9.17;100.00
53480;BME280;56133;51.012;-1.648;2022-11-20T12:11:45;99971.75;;;9.25;100.00
53480;BME280;56133;51.012;-1.648;2022-11-20T12:14:21;99976.03;;;9.38;100.00
53480;BME280;56133;51.012;-1.648;2022-11-20T12:16:50;99968.09;;;9.36;100.00
53480;BME280;56133;51.012;-1.648;2022-11-20T12:19:17;99978.13;;;9.44;100.00
53480;BME280;56133;51.012;-1.648;2022-11-20T12:24:40;99969.25;;;9.93;100.00
53480;BME280;56133;51.012;-1.648;2022-11-20T12:27:27;99959.81;;;9.79;100.00
53480;BME280;56133;51.012;-1.648;2022-11-20T12:30:04;99975.03;;;9.59;100.00
53480;BME280;56133;51.012;-1.648;2022-11-20T12:37:59;99965.31;;;9.67;100.00
53480;BME280;56133;51.012;-1.648;2022-11-20T12:43:16;99954.28;;;9.70;100.00
53480;BME280;56133;51.012;-1.648;2022-11-20T12:48:46;99958.13;;;9.58;100.00
53480;BME280;56133;51.012;-1.648;2022-11-20T13:08:18;99909.28;;;9.35;100.00
53480;BME280;56133;51.012;-1.648;2022-11-20T13:13:29;99908.16;;;9.37;100.00
53480;BME280;56133;51.012;-1.648;2022-11-20T13:16:14;99904.31;;;9.40;100.00
53480;BME280;56133;51.012;-1.648;2022-11-20T13:18:42;99907.00;;;9.40;100.00
53480;BME280;56133;51.012;-1.648;2022-11-20T13:21:14;99899.28;;;9.37;100.00
53480;BME280;56133;51.012;-1.648;2022-11-20T13:23:40;99884.56;;;9.41;100.00
53480;BME280;56133;51.012;-1.648;2022-11-20T13:26:17;99877.66;;;9.68;100.00
53480;BME280;56133;51.012;-1.648;2022-11-20T13:28:46;99889.19;;;9.88;100.00
53480;BME280;56133;51.012;-1.648;2022-11-20T13:31:32;99884.38;;;9.92;100.00
53480;BME280;56133;51.012;-1.648;2022-11-20T13:34:00;99881.00;;;9.90;100.00
53480;BME280;56133;51.012;-1.648;2022-11-20T13:36:28;99891.03;;;9.87;100.00
53480;BME280;56133;51.012;-1.648;2022-11-20T13:38:55;99896.94;;;9.91;100.00
53480;BME280;56133;51.012;-1.648;2022-11-20T13:41:31;99901.47;;;9.91;100.00
53480;BME280;56133;51.012;-1.648;2022-11-20T13:44:05;99890.19;;;9.87;100.00
53480;BME280;56133;51.012;-1.648;2022-11-20T13:46:40;99903.91;;;9.64;100.00
53480;BME280;56133;51.012;-1.648;2022-11-20T13:49:08;99908.97;;;9.57;100.00
53480;BME280;56133;51.012;-1.648;2022-11-20T13:51:44;99908.69;;;9.61;100.00
53480;BME280;56133;51.012;-1.648;2022-11-20T14:02:14;99901.09;;;9.56;100.00
53480;BME280;56133;51.012;-1.648;2022-11-20T14:04:46;99896.53;;;9.76;100.00
53480;BME280;56133;51.012;-1.648;2022-11-20T14:07:13;99894.56;;;9.88;100.00
53480;BME280;56133;51.012;-1.648;2022-11-20T14:09:38;99891.16;;;9.86;100.00
53480;BME280;56133;51.012;-1.648;2022-11-20T14:12:15;99893.16;;;9.74;100.00
53480;BME280;56133;51.012;-1.648;2022-11-20T14:14:48;99892.59;;;9.70;100.00
53480;BME280;56133;51.012;-1.648;2022-11-20T14:19:55;99897.84;;;9.62;100.00
53480;BME280;56133;51.012;-1.648;2022-11-20T14:22:27;99891.50;;;9.53;100.00
53480;BME280;56133;51.012;-1.648;2022-11-20T14:25:06;99900.81;;;9.59;100.00
53480;BME280;56133;51.012;-1.648;2022-11-20T14:27:45;99888.56;;;9.47;100.00